createdAt,value
2018-06-10T00:00:39.028Z,63.63
2018-06-10T00:01:49.221Z,63.05
2018-06-10T00:02:59.497Z,63.53
2018-06-10T00:04:09.386Z,63.63
2018-06-10T00:05:19.314Z,63.34
2018-06-10T00:06:29.727Z,63.34
2018-06-10T00:07:39.865Z,63.43
2018-06-10T00:08:51.004Z,63.53
2018-06-10T00:10:01.246Z,63.53
2018-06-10T00:11:11.502Z,63.21
2018-06-10T00:12:21.669Z,63.6
2018-06-10T00:13:31.844Z,63.5
2018-06-10T00:14:41.776Z,63.69
2018-06-10T00:15:51.925Z,63.89
2018-06-10T00:17:02.128Z,64.47
2018-06-10T00:18:12.353Z,64.56
2018-06-10T00:19:22.795Z,64.66
2018-06-10T00:20:32.942Z,65.43
2018-06-10T00:21:42.729Z,64.95
2018-06-10T00:22:52.881Z,65.11
2018-06-10T00:24:03.023Z,65.43
2018-06-10T00:25:13.184Z,66.27
2018-06-10T00:26:23.402Z,65.4
2018-06-10T00:27:33.576Z,65.78
2018-06-10T00:28:43.805Z,66.08
2018-06-10T00:29:53.976Z,66.08
2018-06-10T00:31:04.154Z,66.56
2018-06-10T00:32:14.342Z,65.88
2018-06-10T00:33:24.498Z,66.08
2018-06-10T00:34:34.867Z,65.98
2018-06-10T00:35:45.108Z,66.36
2018-06-10T00:36:54.816Z,66.46
2018-06-10T00:38:04.738Z,66.46
2018-06-10T00:39:15.005Z,66.56
2018-06-10T00:40:25.162Z,66.46
2018-06-10T00:41:35.331Z,66.46
2018-06-10T00:42:45.480Z,66.66
2018-06-10T00:43:55.733Z,66.66
2018-06-10T00:45:05.962Z,66.56
2018-06-10T00:46:16.099Z,67.04
2018-06-10T00:47:26.295Z,66.66
2018-06-10T00:48:36.240Z,66.66
2018-06-10T00:49:46.158Z,67.01
2018-06-10T00:50:56.303Z,67.59
2018-06-10T00:52:06.537Z,67.49
2018-06-10T00:53:16.686Z,67.59
2018-06-10T00:54:26.829Z,67.72
2018-06-10T00:55:37.048Z,68.2
2018-06-10T00:56:47.253Z,67.91
2018-06-10T00:57:57.675Z,68.07
2018-06-10T00:59:07.807Z,67.91
2018-06-10T01:00:17.936Z,68.26
2018-06-10T01:01:28.097Z,68.46
2018-06-10T01:02:38.227Z,68.65
2018-06-10T01:03:48.395Z,68.36
2018-06-10T01:04:58.545Z,68.46
2018-06-10T01:06:08.675Z,68.65
2018-06-10T01:07:18.862Z,68.65
2018-06-10T01:08:28.986Z,68.55
2018-06-10T01:09:39.145Z,69.04
2018-06-10T01:10:49.322Z,68.75
2018-06-10T01:11:59.543Z,69.04
2018-06-10T01:13:09.886Z,68.75
2018-06-10T01:14:20.147Z,69.04
2018-06-10T01:15:30.363Z,68.94
2018-06-10T01:16:40.562Z,68.75
2018-06-10T01:17:50.772Z,68.65
2018-06-10T01:19:00.902Z,68.65
2018-06-10T01:20:11.136Z,68.55
2018-06-10T01:21:21.342Z,68.65
2018-06-10T01:22:31.580Z,68.65
2018-06-10T01:23:41.837Z,68.75
2018-06-10T01:24:51.990Z,68.75
2018-06-10T01:26:02.117Z,68.84
2018-06-10T01:27:12.272Z,68.75
2018-06-10T01:28:22.420Z,68.75
2018-06-10T01:29:32.651Z,68.65
2018-06-10T01:30:42.776Z,68.36
2018-06-10T01:31:52.977Z,68.26
2018-06-10T01:33:03.129Z,68.36
2018-06-10T01:34:13.313Z,68.46
2018-06-10T01:35:23.220Z,69.04
2018-06-10T01:36:33.152Z,68.65
2018-06-10T01:37:43.295Z,68.46
2018-06-10T01:38:53.676Z,69.04
2018-06-10T01:40:04.175Z,69.23
2018-06-10T01:41:14.270Z,69.04
2018-06-10T01:42:24.464Z,69.04
2018-06-10T01:43:34.703Z,69.13
2018-06-10T01:44:44.924Z,69.42
2018-06-10T01:45:55.119Z,69.29
2018-06-10T01:47:05.319Z,69.29
2018-06-10T01:48:15.668Z,69.29
2018-06-10T01:49:25.450Z,69.58
2018-06-10T01:50:35.805Z,69.58
2018-06-10T01:51:45.943Z,69.81
2018-06-10T01:52:56.126Z,69.81
2018-06-10T01:54:06.087Z,69.71
2018-06-10T01:55:16.241Z,69.81
2018-06-10T01:56:26.174Z,69.23
2018-06-10T01:57:36.360Z,69.62
2018-06-10T01:58:46.606Z,69.81
2018-06-10T01:59:56.787Z,69.81
2018-06-10T02:01:06.963Z,69.71
2018-06-10T02:02:17.132Z,70.2
2018-06-10T02:03:27.381Z,70.29
2018-06-10T02:04:37.586Z,69.9
2018-06-10T02:05:47.827Z,69.9
2018-06-10T02:06:58.088Z,70.1
2018-06-10T02:08:08.472Z,70.1
2018-06-10T02:09:18.665Z,70.48
2018-06-10T02:10:28.830Z,70.48
2018-06-10T02:11:39.055Z,70
2018-06-10T02:12:49.263Z,70
2018-06-10T02:13:59.420Z,69.81
2018-06-10T02:15:09.716Z,70.29
2018-06-10T02:16:19.924Z,70
2018-06-10T02:17:30.131Z,70.39
2018-06-10T02:18:40.369Z,70.39
2018-06-10T02:19:50.628Z,70.2
2018-06-10T02:21:00.807Z,70
2018-06-10T02:22:11.032Z,70.29
2018-06-10T02:23:21.215Z,70.2
2018-06-10T02:24:31.404Z,69.9
2018-06-10T02:25:41.842Z,70.48
2018-06-10T02:26:51.970Z,70.2
2018-06-10T02:28:02.512Z,70.39
2018-06-10T02:29:12.674Z,70.1
2018-06-10T02:30:22.807Z,70.1
2018-06-10T02:32:47.493Z,69.9
2018-06-10T02:33:57.654Z,69.71
2018-06-10T02:35:07.532Z,69.49
2018-06-10T02:36:17.670Z,69.87
2018-06-10T02:37:27.798Z,69.97
2018-06-10T02:38:38.056Z,70.45
2018-06-10T02:39:48.211Z,70.26
2018-06-10T02:40:58.548Z,70.36
2018-06-10T02:42:08.744Z,70.36
2018-06-10T02:43:18.954Z,70.8
2018-06-10T02:44:30.125Z,71.03
2018-06-10T02:45:40.276Z,71.28
2018-06-10T02:46:50.576Z,70.74
2018-06-10T02:48:00.804Z,70.42
2018-06-10T02:49:11.016Z,70.61
2018-06-10T02:50:21.249Z,70.51
2018-06-10T02:51:31.447Z,70.7
2018-06-10T02:52:41.798Z,70.8
2018-06-10T02:53:51.951Z,71.38
2018-06-10T02:55:02.324Z,71.86
2018-06-10T02:56:12.458Z,71.77
2018-06-10T02:57:22.622Z,71.67
2018-06-10T02:58:32.831Z,71.67
2018-06-10T02:59:43.117Z,71.8
2018-06-10T03:00:53.313Z,71.61
2018-06-10T03:02:03.508Z,71.9
2018-06-10T03:03:13.709Z,71.7
2018-06-10T03:04:23.857Z,71.77
2018-06-10T03:05:34.003Z,71.67
2018-06-10T03:06:44.338Z,71.77
2018-06-10T03:07:54.627Z,71.77
2018-06-10T03:09:04.927Z,72.15
2018-06-10T03:10:15.099Z,72.34
2018-06-10T03:11:25.241Z,72.15
2018-06-10T03:12:35.436Z,71.77
2018-06-10T03:13:45.649Z,71.67
2018-06-10T03:14:56.326Z,71.48
2018-06-10T03:16:06.687Z,71.67
2018-06-10T03:17:16.819Z,71.77
2018-06-10T03:18:26.966Z,71.67
2018-06-10T03:19:37.216Z,71.86
2018-06-10T03:20:47.549Z,71.77
2018-06-10T03:21:57.470Z,71.67
2018-06-10T03:23:07.629Z,71.67
2018-06-10T03:24:17.831Z,71.58
2018-06-10T03:25:27.971Z,71.77
2018-06-10T03:26:38.502Z,72.25
2018-06-10T03:27:48.494Z,72.54
2018-06-10T03:28:58.633Z,72.44
2018-06-10T03:30:08.904Z,72.44
2018-06-10T03:31:18.809Z,72.15
2018-06-10T03:32:28.943Z,73.11
2018-06-10T03:33:38.716Z,72.73
2018-06-10T03:34:48.853Z,72.92
2018-06-10T03:35:58.988Z,72.92
2018-06-10T03:37:09.163Z,72.92
2018-06-10T03:38:19.315Z,73.02
2018-06-10T03:39:29.548Z,72.92
2018-06-10T03:40:39.704Z,72.92
2018-06-10T03:41:50.084Z,72.92
2018-06-10T03:43:00.291Z,73.02
2018-06-10T03:44:10.550Z,73.08
2018-06-10T03:45:20.767Z,73.08
2018-06-10T03:46:30.911Z,72.89
2018-06-10T03:47:41.191Z,73.66
2018-06-10T03:48:51.375Z,73.66
2018-06-10T03:50:01.264Z,73.95
2018-06-10T03:51:11.418Z,73.66
2018-06-10T03:52:21.288Z,74.14
2018-06-10T03:53:31.651Z,74.14
2018-06-10T03:54:41.901Z,74.43
2018-06-10T03:55:52.147Z,74.33
2018-06-10T03:57:02.428Z,74.52
2018-06-10T03:58:12.569Z,74.68
2018-06-10T03:59:22.732Z,75.07
2018-06-10T04:00:33.110Z,74.88
2018-06-10T04:01:44.279Z,75.07
2018-06-10T04:02:54.471Z,74.78
2018-06-10T04:04:04.622Z,74.97
2018-06-10T04:05:14.278Z,75.36
2018-06-10T04:06:24.455Z,75.4
2018-06-10T04:07:34.820Z,75.45
2018-06-10T04:08:44.967Z,75.16
2018-06-10T04:09:55.123Z,75.74
2018-06-10T04:11:05.257Z,75.84
2018-06-10T04:12:15.421Z,75.84
2018-06-10T04:13:25.548Z,76.32
2018-06-10T04:14:35.749Z,76.42
2018-06-10T04:15:46.266Z,76.32
2018-06-10T04:16:56.401Z,76.32
2018-06-10T04:18:06.535Z,76.23
2018-06-10T04:19:16.674Z,76.42
2018-06-10T04:20:26.874Z,76.51
2018-06-10T04:21:37.005Z,76.8
2018-06-10T04:22:47.229Z,76.32
2018-06-10T04:23:57.514Z,76.51
2018-06-10T04:25:07.437Z,76.51
2018-06-10T04:26:17.633Z,76.45
2018-06-10T04:27:27.778Z,76.65
2018-06-10T04:28:37.933Z,76.65
2018-06-10T04:29:48.083Z,76.93
2018-06-10T04:30:58.345Z,76.45
2018-06-10T04:32:08.512Z,76.07
2018-06-10T04:33:18.683Z,76.55
2018-06-10T04:34:28.802Z,76.1
2018-06-10T04:35:38.943Z,76.1
2018-06-10T04:36:49.101Z,76.2
2018-06-10T04:37:58.982Z,75.92
2018-06-10T04:39:09.362Z,75.92
2018-06-10T04:40:19.139Z,75.92
2018-06-10T04:41:29.168Z,75.85
2018-06-10T04:42:39.359Z,75.43
2018-06-10T04:43:49.479Z,75.82
2018-06-10T04:44:59.620Z,75.37
2018-06-10T04:46:09.211Z,75.37
2018-06-10T04:47:19.384Z,75.37
2018-06-10T04:48:29.565Z,75.37
2018-06-10T04:49:39.705Z,75.47
2018-06-10T04:50:49.720Z,75.47
2018-06-10T04:51:59.913Z,75.67
2018-06-10T04:53:10.132Z,75.47
2018-06-10T04:54:20.340Z,75.37
2018-06-10T04:55:30.513Z,75.09
2018-06-10T04:56:40.719Z,75.27
2018-06-10T04:57:50.851Z,75.18
2018-06-10T04:59:01.029Z,75.18
2018-06-10T05:00:11.157Z,75.18
2018-06-10T05:01:21.327Z,75.27
2018-06-10T05:02:31.489Z,75.18
2018-06-10T05:03:41.720Z,75.57
2018-06-10T05:04:52.089Z,75.47
2018-06-10T05:06:02.237Z,75.09
2018-06-10T05:07:12.397Z,74.99
2018-06-10T05:08:23.036Z,75.09
2018-06-10T05:09:33.157Z,75.09
2018-06-10T05:10:43.067Z,74.99
2018-06-10T05:11:53.328Z,74.89
2018-06-10T05:13:03.517Z,74.93
2018-06-10T05:14:13.730Z,74.64
2018-06-10T05:15:23.926Z,74.69
2018-06-10T05:16:34.122Z,74.83
2018-06-10T05:17:44.058Z,74.54
2018-06-10T05:18:54.174Z,74.83
2018-06-10T05:20:04.593Z,74.73
2018-06-10T05:21:14.999Z,74.44
2018-06-10T05:22:25.257Z,74.25
2018-06-10T05:23:35.577Z,74.06
2018-06-10T05:24:45.472Z,73.96
2018-06-10T05:25:55.625Z,73.67
2018-06-10T05:27:05.804Z,73.86
2018-06-10T05:28:16.210Z,73.77
2018-06-10T05:29:26.148Z,73.96
2018-06-10T05:30:36.309Z,73.48
2018-06-10T05:31:46.486Z,73.58
2018-06-10T05:32:56.362Z,73.77
2018-06-10T05:34:06.486Z,73.67
2018-06-10T05:35:16.687Z,73.67
2018-06-10T05:36:26.875Z,73.19
2018-06-10T05:37:37.056Z,73.22
2018-06-10T05:38:46.968Z,73.03
2018-06-10T05:39:57.098Z,73.03
2018-06-10T05:41:07.320Z,72.74
2018-06-10T05:42:17.455Z,72.26
2018-06-10T05:43:27.749Z,72.16
2018-06-10T05:44:38.017Z,72.06
2018-06-10T05:45:48.226Z,71.78
2018-06-10T05:46:58.429Z,71.78
2018-06-10T05:48:08.667Z,71.52
2018-06-10T05:49:18.848Z,71.42
2018-06-10T05:50:29.070Z,71.14
2018-06-10T05:51:39.452Z,71.23
2018-06-10T05:52:49.580Z,71.23
2018-06-10T05:53:59.649Z,70.94
2018-06-10T05:55:09.844Z,70.88
2018-06-10T05:56:19.996Z,70.4
2018-06-10T05:57:30.144Z,70.01
2018-06-10T05:58:40.319Z,70.59
2018-06-10T05:59:50.209Z,70.1
2018-06-10T06:01:00.354Z,70.2
2018-06-10T06:02:10.527Z,69.82
2018-06-10T06:03:20.703Z,69.82
2018-06-10T06:04:30.847Z,69.92
2018-06-10T06:05:41.247Z,69.37
2018-06-10T06:06:51.412Z,69.53
2018-06-10T06:08:01.560Z,69.17
2018-06-10T06:09:11.746Z,69.17
2018-06-10T06:10:22.141Z,69.33
2018-06-10T06:11:32.282Z,69.14
2018-06-10T06:12:42.439Z,69.24
2018-06-10T06:13:52.598Z,68.98
2018-06-10T06:15:02.815Z,68.79
2018-06-10T06:16:12.722Z,68.88
2018-06-10T06:17:22.878Z,68.49
2018-06-10T06:18:33.052Z,68.49
2018-06-10T06:19:43.247Z,68.98
2018-06-10T06:20:53.537Z,68.79
2018-06-10T06:22:03.724Z,68.88
2018-06-10T06:23:14.081Z,68.79
2018-06-10T06:24:24.271Z,68.88
2018-06-10T06:25:34.406Z,68.4
2018-06-10T06:26:44.639Z,69.17
2018-06-10T06:27:54.839Z,68.59
2018-06-10T06:29:05.035Z,68.98
2018-06-10T06:30:15.240Z,68.49
2018-06-10T06:31:25.445Z,68.88
2018-06-10T06:32:35.711Z,68.59
2018-06-10T06:33:45.930Z,68.69
2018-06-10T06:34:55.855Z,68.98
2018-06-10T06:36:06.053Z,68.88
2018-06-10T06:37:16.204Z,68.79
2018-06-10T06:38:26.381Z,68.79
2018-06-10T06:39:36.552Z,68.82
2018-06-10T06:40:46.723Z,68.73
2018-06-10T06:41:56.889Z,68.82
2018-06-10T06:43:07.141Z,68.43
2018-06-10T06:44:17.352Z,68.43
2018-06-10T06:45:27.247Z,68.82
2018-06-10T06:46:37.636Z,69.01
2018-06-10T06:47:47.855Z,68.73
2018-06-10T06:48:57.822Z,68.66
2018-06-10T06:50:07.996Z,68.56
2018-06-10T06:51:18.175Z,68.37
2018-06-10T06:52:28.524Z,68.47
2018-06-10T06:53:38.820Z,68.56
2018-06-10T06:54:48.974Z,67.98
2018-06-10T06:55:59.200Z,68.18
2018-06-10T06:57:09.419Z,67.5
2018-06-10T06:58:19.728Z,67.69
2018-06-10T06:59:29.935Z,67.34
2018-06-10T07:00:40.401Z,67.05
2018-06-10T07:01:50.687Z,66.56
2018-06-10T07:03:00.902Z,66.53
2018-06-10T07:04:11.140Z,66.75
2018-06-10T07:05:21.162Z,66.66
2018-06-10T07:06:31.471Z,66.85
2018-06-10T07:07:41.608Z,66.85
2018-06-10T07:08:51.753Z,66.95
2018-06-10T07:10:01.969Z,66.56
2018-06-10T07:11:12.170Z,66.66
2018-06-10T07:12:22.395Z,66.66
2018-06-10T07:13:32.558Z,66.85
2018-06-10T07:14:42.724Z,67.05
2018-06-10T07:15:52.927Z,66.99
2018-06-10T07:17:03.179Z,66.69
2018-06-10T07:18:13.380Z,66.89
2018-06-10T07:19:23.595Z,66.6
2018-06-10T07:20:33.968Z,66.5
2018-06-10T07:21:44.154Z,65.92
2018-06-10T07:22:54.333Z,65.63
2018-06-10T07:24:04.527Z,65.92
2018-06-10T07:25:14.748Z,65.43
2018-06-10T07:26:24.945Z,65.43
2018-06-10T07:27:35.196Z,65.53
2018-06-10T07:28:45.449Z,65.24
2018-06-10T07:29:55.624Z,65.43
2018-06-10T07:31:05.865Z,65.34
2018-06-10T07:32:16.043Z,65.24
2018-06-10T07:33:26.352Z,65.43
2018-06-10T07:34:36.961Z,65.63
2018-06-10T07:35:47.164Z,64.75
2018-06-10T07:36:57.352Z,64.95
2018-06-10T07:38:07.617Z,65.24
2018-06-10T07:39:17.789Z,64.95
2018-06-10T07:40:28.073Z,64.56
2018-06-10T07:41:38.388Z,63.78
2018-06-10T07:42:48.576Z,63.78
2018-06-10T07:43:58.983Z,63.98
2018-06-10T07:45:09.157Z,63.98
2018-06-10T07:46:19.342Z,63.82
2018-06-10T07:47:29.492Z,64.01
2018-06-10T07:48:39.871Z,63.82
2018-06-10T07:49:50.051Z,63.53
2018-06-10T07:51:00.224Z,63.26
2018-06-10T07:52:10.426Z,63.17
2018-06-10T07:53:20.684Z,62.39
2018-06-10T07:54:30.862Z,61.35
2018-06-10T07:55:41.055Z,61.25
2018-06-10T07:56:51.225Z,61.07
2018-06-10T07:58:01.454Z,61.07
2018-06-10T07:59:11.828Z,61.38
2018-06-10T08:00:21.995Z,60.9
2018-06-10T08:01:32.192Z,60.71
2018-06-10T08:02:42.360Z,60.8
2018-06-10T08:03:52.516Z,59.64
2018-06-10T08:05:02.715Z,59.67
2018-06-10T08:06:12.897Z,59.28
2018-06-10T08:07:23.088Z,59.18
2018-06-10T08:08:33.373Z,58.89
2018-06-10T08:09:43.568Z,58.4
2018-06-10T08:10:53.745Z,58.62
2018-06-10T08:12:03.895Z,58.43
2018-06-10T08:13:14.195Z,58.14
2018-06-10T08:14:24.842Z,57.85
2018-06-10T08:15:35.087Z,57.56
2018-06-10T08:16:45.461Z,57.56
2018-06-10T08:17:55.657Z,57.2
2018-06-10T08:19:05.991Z,57.29
2018-06-10T08:20:16.154Z,56.12
2018-06-10T08:21:26.327Z,56.71
2018-06-10T08:22:36.510Z,56.81
2018-06-10T08:23:46.717Z,57
2018-06-10T08:24:56.935Z,56.9
2018-06-10T08:26:07.136Z,56.9
2018-06-10T08:27:17.476Z,56.41
2018-06-10T08:28:28.051Z,56.29
2018-06-10T08:29:38.109Z,56.12
2018-06-10T08:30:48.525Z,56.41
2018-06-10T08:31:58.797Z,56.59
2018-06-10T08:33:09.257Z,57
2018-06-10T08:34:19.212Z,56.9
2018-06-10T08:35:29.398Z,56.41
2018-06-10T08:36:39.602Z,56.12
2018-06-10T08:37:49.810Z,56.25
2018-06-10T08:38:59.995Z,56.25
2018-06-10T08:40:10.196Z,56.15
2018-06-10T08:41:20.395Z,55.99
2018-06-10T08:42:30.550Z,55.33
2018-06-10T08:43:41.094Z,55.33
2018-06-10T08:44:51.388Z,55.43
2018-06-10T08:46:01.549Z,55.55
2018-06-10T08:47:11.760Z,55.55
2018-06-10T08:48:21.923Z,54.87
2018-06-10T08:49:32.136Z,54.9
2018-06-10T08:50:42.597Z,54.21
2018-06-10T08:51:54.053Z,53.85
2018-06-10T08:53:04.259Z,53.07
2018-06-10T08:54:14.496Z,52.31
2018-06-10T08:55:24.704Z,52.41
2018-06-10T08:56:34.923Z,51.66
2018-06-10T08:57:45.156Z,51.27
2018-06-10T08:58:55.120Z,51.29
2018-06-10T09:00:05.327Z,50.63
2018-06-10T09:01:15.555Z,49.48
2018-06-10T09:02:25.726Z,48.31
2018-06-10T09:03:35.946Z,47.36
2018-06-10T09:04:46.181Z,47.67
2018-06-10T09:05:56.396Z,47.75
2018-06-10T09:07:08.152Z,47.36
2018-06-10T09:08:19.582Z,47.26
2018-06-10T09:09:29.815Z,45.98
2018-06-10T09:10:40.072Z,46.08
2018-06-10T09:11:50.348Z,47.06
2018-06-10T09:13:00.553Z,46.67
2018-06-10T09:14:10.769Z,46.4
2018-06-10T09:15:20.984Z,46.3
2018-06-10T09:16:31.166Z,45.54
2018-06-10T09:17:41.396Z,44.88
2018-06-10T09:18:51.573Z,44.78
2018-06-10T09:20:02.031Z,44.38
2018-06-10T09:21:11.990Z,44.48
2018-06-10T09:22:22.263Z,44.38
2018-06-10T09:23:32.761Z,44.46
2018-06-10T09:24:42.951Z,44.07
2018-06-10T09:25:53.386Z,44.56
2018-06-10T09:27:03.654Z,44.76
2018-06-10T09:28:13.941Z,45.15
2018-06-10T09:29:24.384Z,45.13
2018-06-10T09:30:34.611Z,45.52
2018-06-10T09:31:44.795Z,45.23
2018-06-10T09:32:54.970Z,45.23
2018-06-10T09:34:05.246Z,45.3
2018-06-10T09:35:15.643Z,45.28
2018-06-10T09:36:25.989Z,45.28
2018-06-10T09:37:36.155Z,45.75
2018-06-10T09:38:46.534Z,46.01
2018-06-10T09:39:56.703Z,46.21
2018-06-10T09:41:06.885Z,46.21
2018-06-10T09:42:17.065Z,46.19
2018-06-10T09:43:27.271Z,46.5
2018-06-10T09:44:38.239Z,46.41
2018-06-10T09:45:48.435Z,46.14
2018-06-10T09:46:58.648Z,45.94
2018-06-10T09:48:08.813Z,46.06
2018-06-10T09:49:19.033Z,45.97
2018-06-10T09:50:29.196Z,46.14
2018-06-10T09:51:39.404Z,45.18
2018-06-10T09:52:49.844Z,45.28
2018-06-10T09:54:00.087Z,45.59
2018-06-10T09:55:10.426Z,45.59
2018-06-10T09:56:21.115Z,45.97
2018-06-10T09:57:31.109Z,45.47
2018-06-10T09:58:41.293Z,46.36
2018-06-10T09:59:51.486Z,46.62
2018-06-10T10:01:01.728Z,46.8
2018-06-10T10:02:11.958Z,47.87
2018-06-10T10:03:22.132Z,48.46
2018-06-10T10:04:32.402Z,49.02
2018-06-10T10:05:42.604Z,49.12
2018-06-10T10:06:52.835Z,49.32
2018-06-10T10:08:03.019Z,49.78
2018-06-10T10:09:13.210Z,49.68
2018-06-10T10:10:23.414Z,50.36
2018-06-10T10:11:33.676Z,50.65
2018-06-10T10:12:43.923Z,50.73
2018-06-10T10:13:54.146Z,50.95
2018-06-10T10:15:04.356Z,50.95
2018-06-10T10:16:14.316Z,51.04
2018-06-10T10:17:24.501Z,50.56
2018-06-10T10:18:34.734Z,50.49
2018-06-10T10:19:44.924Z,49.51
2018-06-10T10:20:55.141Z,49.61
2018-06-10T10:22:05.378Z,50
2018-06-10T10:23:15.319Z,50
2018-06-10T10:24:25.551Z,50.36
2018-06-10T10:25:35.917Z,50.46
2018-06-10T10:26:46.234Z,50.46
2018-06-10T10:27:56.414Z,50.88
2018-06-10T10:29:06.627Z,50.98
2018-06-10T10:30:17.026Z,50.78
2018-06-10T10:31:27.617Z,49.9
2018-06-10T10:32:37.817Z,49.63
2018-06-10T10:33:48.340Z,49.07
2018-06-10T10:34:58.700Z,48.68
2018-06-10T10:36:08.764Z,47.24
2018-06-10T10:37:18.971Z,47.26
2018-06-10T10:38:29.466Z,46.57
2018-06-10T10:39:39.897Z,46.69
2018-06-10T10:40:50.074Z,46.59
2018-06-10T10:42:00.430Z,46.5
2018-06-10T10:43:10.612Z,45.64
2018-06-10T10:44:20.837Z,45.05
2018-06-10T10:45:31.047Z,44.48
2018-06-10T10:46:41.221Z,45.15
2018-06-10T10:47:51.611Z,44.56
2018-06-10T10:49:01.949Z,44.66
2018-06-10T10:50:12.245Z,43.8
2018-06-10T10:51:22.518Z,44.09
2018-06-10T10:52:33.783Z,42.82
2018-06-10T10:53:44.033Z,42.94
2018-06-10T10:54:54.349Z,42.74
2018-06-10T10:56:04.633Z,43.13
2018-06-10T10:57:15.500Z,42.94
2018-06-10T10:58:25.963Z,42.74
2018-06-10T10:59:36.176Z,42.91
2018-06-10T11:00:46.376Z,42.91
2018-06-10T11:01:56.696Z,42.82
2018-06-10T11:03:06.979Z,43.02
2018-06-10T11:04:17.203Z,42.99
2018-06-10T11:05:27.406Z,42.99
2018-06-10T11:06:37.360Z,43.17
2018-06-10T11:07:47.675Z,42.78
2018-06-10T11:08:57.989Z,43.85
2018-06-10T11:10:08.192Z,43.73
2018-06-10T11:11:18.406Z,44.52
2018-06-10T11:12:28.629Z,44.52
2018-06-10T11:13:38.825Z,44.23
2018-06-10T11:14:49.162Z,44.42
2018-06-10T11:15:59.953Z,44.32
2018-06-10T11:17:10.256Z,44.89
2018-06-10T11:18:20.465Z,45.08
2018-06-10T11:19:30.410Z,45.16
2018-06-10T11:20:40.836Z,45.36
2018-06-10T11:21:51.051Z,45.75
2018-06-10T11:23:01.280Z,45.92
2018-06-10T11:24:11.291Z,46.31
2018-06-10T11:25:21.492Z,46.48
2018-06-10T11:26:31.729Z,47.07
2018-06-10T11:27:42.025Z,47.24
2018-06-10T11:28:52.407Z,47.92
2018-06-10T11:30:02.650Z,48.29
2018-06-10T11:31:12.988Z,48.58
2018-06-10T11:32:23.197Z,48.39
2018-06-10T11:33:33.461Z,48.68
2018-06-10T11:34:43.742Z,48.58
2018-06-10T11:35:53.712Z,48.02
2018-06-10T11:37:03.885Z,46.48
2018-06-10T11:38:14.118Z,46.29
2018-06-10T11:39:24.689Z,46.36
2018-06-10T11:40:34.922Z,46.85
2018-06-10T11:41:45.204Z,46.75
2018-06-10T11:42:55.678Z,46.97
2018-06-10T11:44:06.008Z,47.36
2018-06-10T11:45:16.286Z,47.07
2018-06-10T11:46:26.465Z,47.07
2018-06-10T11:47:36.663Z,47.24
2018-06-10T11:48:46.871Z,47.05
2018-06-10T11:49:57.117Z,47.05
2018-06-10T11:51:07.468Z,46.85
2018-06-10T11:52:17.948Z,47.05
2018-06-10T11:53:28.260Z,47.44
2018-06-10T11:54:38.479Z,47.24
2018-06-10T11:55:48.765Z,47.24
2018-06-10T11:56:59.210Z,46.63
2018-06-10T11:58:09.720Z,46.53
2018-06-10T11:59:20.065Z,46.53
2018-06-10T12:00:30.244Z,46.44
2018-06-10T12:01:40.489Z,46.24
2018-06-10T12:02:50.716Z,46.53
2018-06-10T12:04:00.952Z,46.92
2018-06-10T12:05:11.245Z,46.83
2018-06-10T12:06:21.786Z,47.02
2018-06-10T12:07:32.022Z,46.92
2018-06-10T12:08:42.214Z,46.63
2018-06-10T12:09:52.421Z,47.02
2018-06-10T12:11:02.649Z,46.7
2018-06-10T12:12:12.921Z,47.19
2018-06-10T12:13:23.014Z,48.19
2018-06-10T12:14:33.302Z,47.71
2018-06-10T12:15:43.546Z,47.61
2018-06-10T12:16:53.493Z,47.71
2018-06-10T12:18:03.717Z,47.8
2018-06-10T12:19:13.942Z,48.1
2018-06-10T12:20:24.505Z,48.29
2018-06-10T12:21:34.669Z,48.49
2018-06-10T12:22:45.098Z,48.27
2018-06-10T12:23:55.988Z,48.68
2018-06-10T12:25:06.250Z,48.49
2018-06-10T12:26:16.499Z,48.17
2018-06-10T12:27:26.721Z,48.56
2018-06-10T12:28:37.059Z,48.95
2018-06-10T12:29:47.290Z,49.24
2018-06-10T12:30:57.490Z,49.15
2018-06-10T12:32:07.735Z,49.15
2018-06-10T12:33:17.779Z,48.46
2018-06-10T12:34:28.006Z,48.63
2018-06-10T12:35:38.210Z,48.34
2018-06-10T12:36:48.530Z,48.34
2018-06-10T12:37:59.703Z,47.85
2018-06-10T12:39:10.251Z,48.41
2018-06-10T12:40:20.474Z,48.32
2018-06-10T12:41:30.745Z,49
2018-06-10T12:42:41.012Z,49.29
2018-06-10T12:43:51.552Z,49.66
2018-06-10T12:45:01.891Z,49.27
2018-06-10T12:46:12.243Z,49.37
2018-06-10T12:47:22.463Z,49.37
2018-06-10T12:48:32.667Z,49.76
2018-06-10T12:49:42.916Z,49.66
2018-06-10T12:50:53.116Z,49.66
2018-06-10T12:52:03.326Z,49.46
2018-06-10T12:53:13.575Z,49.56
2018-06-10T12:54:23.825Z,49.37
2018-06-10T12:55:34.013Z,49.37
2018-06-10T12:56:44.258Z,49.76
2018-06-10T12:57:54.882Z,49.15
2018-06-10T12:59:05.088Z,48.95
2018-06-10T13:00:15.357Z,49.15
2018-06-10T13:01:25.611Z,49.54
2018-06-10T13:02:35.846Z,49.44
2018-06-10T13:03:46.123Z,49.24
2018-06-10T13:04:56.320Z,49.22
2018-06-10T13:06:06.532Z,49.54
2018-06-10T13:07:16.756Z,49.73
2018-06-10T13:08:26.994Z,49.71
2018-06-10T13:09:37.288Z,49.44
2018-06-10T13:10:47.244Z,49.61
2018-06-10T13:11:57.462Z,49.61
2018-06-10T13:13:07.773Z,49.61
2018-06-10T13:14:17.983Z,49.9
2018-06-10T13:15:28.428Z,50.02
2018-06-10T13:16:38.653Z,50.29
2018-06-10T13:17:48.931Z,50.29
2018-06-10T13:18:59.125Z,50.09
2018-06-10T13:20:09.441Z,50.19
2018-06-10T13:21:19.932Z,50.38
2018-06-10T13:22:30.114Z,49.9
2018-06-10T13:23:40.328Z,50.29
2018-06-10T13:24:50.537Z,50.21
2018-06-10T13:26:00.729Z,49.83
2018-06-10T13:27:11.056Z,49.54
2018-06-10T13:28:21.248Z,49.63
2018-06-10T13:29:31.490Z,49.73
2018-06-10T13:30:41.720Z,49.44
2018-06-10T13:31:51.971Z,49.54
2018-06-10T13:33:02.179Z,49.63
2018-06-10T13:34:12.414Z,49.15
2018-06-10T13:35:22.644Z,49.15
2018-06-10T13:36:32.811Z,49.15
2018-06-10T13:37:43.056Z,49.15
2018-06-10T13:38:53.230Z,49.05
2018-06-10T13:40:03.455Z,48.75
2018-06-10T13:41:13.704Z,49.27
2018-06-10T13:42:23.926Z,48.97
2018-06-10T13:43:34.196Z,49.07
2018-06-10T13:44:44.381Z,49.17
2018-06-10T13:45:54.642Z,48.39
2018-06-10T13:47:04.652Z,48.51
2018-06-10T13:48:16.474Z,48.41
2018-06-10T13:49:26.687Z,48.41
2018-06-10T13:50:36.946Z,48.32
2018-06-10T13:51:47.160Z,48.12
2018-06-10T13:52:57.507Z,47.66
2018-06-10T13:54:07.804Z,47.46
2018-06-10T13:55:18.048Z,46.49
2018-06-10T13:56:28.362Z,45.81
2018-06-10T13:57:38.638Z,46.49
2018-06-10T13:58:48.866Z,46.59
2018-06-10T13:59:59.132Z,46.97
2018-06-10T14:01:09.376Z,46.69
2018-06-10T14:02:19.588Z,46.9
2018-06-10T14:03:29.936Z,45.83
2018-06-10T14:04:40.166Z,46.2
2018-06-10T14:05:50.582Z,46.1
2018-06-10T14:07:00.575Z,45.71
2018-06-10T14:08:10.799Z,46.3
2018-06-10T14:09:20.727Z,46.49
2018-06-10T14:10:31.152Z,46.49
2018-06-10T14:11:41.355Z,46.39
2018-06-10T14:12:51.628Z,46.59
2018-06-10T14:14:01.861Z,47.17
2018-06-10T14:15:12.183Z,47.66
2018-06-10T14:16:22.548Z,47.75
2018-06-10T14:17:32.573Z,47.63
2018-06-10T14:18:42.851Z,48.41
2018-06-10T14:19:52.794Z,48.51
2018-06-10T14:21:02.866Z,48.78
2018-06-10T14:22:13.383Z,49.17
2018-06-10T14:23:23.619Z,49.07
2018-06-10T14:24:33.842Z,49.56
2018-06-10T14:25:44.145Z,49.56
2018-06-10T14:26:54.564Z,49.56
2018-06-10T14:28:04.852Z,49.83
2018-06-10T14:29:15.100Z,49.63
2018-06-10T14:30:25.373Z,49.73
2018-06-10T14:31:35.478Z,49.73
2018-06-10T14:32:45.708Z,50.21
2018-06-10T14:33:56.204Z,50.31
2018-06-10T14:35:06.432Z,50.12
2018-06-10T14:36:16.658Z,50.12
2018-06-10T14:37:26.889Z,50.51
2018-06-10T14:38:37.335Z,50.6
2018-06-10T14:39:47.603Z,50.8
2018-06-10T14:40:57.892Z,50.7
2018-06-10T14:42:08.253Z,50.21
2018-06-10T14:43:18.151Z,50.31
2018-06-10T14:44:28.491Z,50.51
2018-06-10T14:45:38.888Z,50.31
2018-06-10T14:46:50.086Z,50.51
2018-06-10T14:48:00.352Z,50.6
2018-06-10T14:49:10.541Z,50.41
2018-06-10T14:50:20.760Z,50.41
2018-06-10T14:51:30.969Z,50.9
2018-06-10T14:52:41.158Z,50.21
2018-06-10T14:53:51.399Z,49.92
2018-06-10T14:55:01.657Z,50.78
2018-06-10T14:56:12.243Z,50.58
2018-06-10T14:57:22.449Z,51.07
2018-06-10T14:58:32.901Z,51.17
2018-06-10T14:59:43.142Z,51.17
2018-06-10T15:00:53.359Z,51.07
2018-06-10T15:02:03.539Z,50.97
2018-06-10T15:03:13.765Z,50.97
2018-06-10T15:04:24.008Z,51.07
2018-06-10T15:05:34.216Z,51.23
2018-06-10T15:06:44.421Z,51.62
2018-06-10T15:07:54.688Z,51.62
2018-06-10T15:09:04.701Z,50.65